Time;durP1;ratioP1;P1;durP2;ratioP2;P2;SDS_P1;SDS_P2;PMS_P1;PMS_P2;Temp;Humidity;BMP_temperature;BMP_pressure;BME280_temperature;BME280_humidity;BME280_pressure;Samples;Min_cycle;Max_cycle;Signal;HPM_P1;HPM_P2
2022/08/22 05:50:01;;;;;;;;;5.00;5.00;;;;;23.52;66.92;101160.97;5068480;28;45362;-77
2022/08/22 05:52:45;;;;;;;;;3.50;3.00;;;;;23.03;67.69;101162.84;5051664;28;45595;-75
2022/08/22 05:55:29;;;;;;;;;4.50;3.00;;;;;22.57;69.82;101166.34;5052572;28;45356;-78
2022/08/22 05:58:27;;;;;;;;;3.00;3.00;;;;;22.25;71.42;101172.44;5052780;28;45445;-78
2022/08/22 06:01:00;;;;;;;;;3.75;3.75;;;;;22.07;72.53;101181.19;5051658;28;45363;-78
2022/08/22 06:03:36;;;;;;;;;5.25;3.75;;;;;21.95;73.54;101174.09;5052983;28;45421;-78
2022/08/22 06:06:12;;;;;;;;;5.50;4.25;;;;;21.82;74.56;101173.19;5053426;28;45312;-79
2022/08/22 06:08:43;;;;;;;;;4.00;3.25;;;;;21.69;75.76;101176.66;5052886;28;45359;-76
2022/08/22 06:11:19;;;;;;;;;7.50;5.00;;;;;21.61;75.72;101189.78;5052795;28;45309;-77
2022/08/22 06:13:52;;;;;;;;;4.00;4.00;;;;;21.56;76.78;101189.72;5036042;28;45966;-77
2022/08/22 06:16:36;;;;;;;;;4.50;4.25;;;;;21.50;77.44;101182.66;5047473;28;45539;-77
2022/08/22 06:19:03;;;;;;;;;5.00;4.50;;;;;21.44;77.64;101169.47;5032488;28;45472;-79
2022/08/22 06:21:36;;;;;;;;;6.75;4.00;;;;;21.43;78.38;101177.38;5032061;28;46668;-76
2022/08/22 06:24:07;;;;;;;;;6.50;4.00;;;;;21.41;78.63;101184.38;5041825;28;44958;-76
2022/08/22 06:26:41;;;;;;;;;5.50;4.00;;;;;21.38;79.26;101179.09;5032545;28;45319;-77
2022/08/22 06:29:13;;;;;;;;;3.75;3.75;;;;;21.39;79.12;101183.50;5031022;28;45569;-77
2022/08/22 06:31:45;;;;;;;;;6.50;6.50;;;;;21.39;79.66;101183.50;5032425;28;45264;-76
2022/08/22 06:34:16;;;;;;;;;6.75;6.00;;;;;21.41;79.78;101190.53;5032334;28;45734;-76
2022/08/22 06:36:48;;;;;;;;;6.00;5.00;;;;;21.47;80.10;101192.31;5032574;28;45347;-77
2022/08/22 06:39:33;;;;;;;;;8.00;6.25;;;;;21.56;80.09;101189.72;5032412;28;45284;-76
2022/08/22 06:42:09;;;;;;;;;6.50;6.50;;;;;21.63;79.83;101185.41;5035106;28;47189;-75
2022/08/22 06:44:49;;;;;;;;;4.25;4.25;;;;;21.73;79.21;101187.22;5033844;28;45178;-75
2022/08/22 06:47:31;;;;;;;;;7.25;5.75;;;;;21.84;79.43;101183.72;5034445;28;45532;-76
2022/08/22 06:50:08;;;;;;;;;5.50;5.50;;;;;21.92;78.84;101172.34;5052744;28;45561;-76
2022/08/22 06:52:47;;;;;;;;;3.75;3.00;;;;;22.01;78.57;101165.34;5034365;28;45525;-76
2022/08/22 06:55:13;;;;;;;;;5.00;4.50;;;;;22.09;78.71;101159.22;5034363;28;45729;-75
2022/08/22 06:57:49;;;;;;;;;6.00;4.75;;;;;22.13;78.58;101162.75;5052207;28;45526;-75
2022/08/22 07:00:17;;;;;;;;;7.50;5.00;;;;;22.27;78.29;101176.84;5042249;28;45320;-77
2022/08/22 07:02:48;;;;;;;;;4.00;4.00;;;;;22.34;78.28;101183.03;5038423;28;45417;-78
2022/08/22 07:05:25;;;;;;;;;5.50;5.00;;;;;22.36;77.59;101183.00;5038776;28;45737;-78
2022/08/22 07:07:51;;;;;;;;;6.00;4.25;;;;;22.39;77.60;101196.22;5038681;28;45246;-78
2022/08/22 07:10:20;;;;;;;;;4.00;4.00;;;;;22.37;77.48;101206.75;5039164;28;45691;-77
2022/08/22 07:12:50;;;;;;;;;7.25;6.00;;;;;22.37;78.01;101208.53;5038443;28;45441;-77
2022/08/22 07:15:19;;;;;;;;;4.00;4.00;;;;;22.41;77.58;101205.94;5038615;28;45499;-77
2022/08/22 07:17:51;;;;;;;;;3.50;3.50;;;;;22.41;77.67;101203.28;5038400;28;45415;-77
2022/08/22 07:20:23;;;;;;;;;4.50;4.50;;;;;22.45;77.53;101212.09;5038788;28;45355;-76
2022/08/22 07:23:00;;;;;;;;;6.50;3.00;;;;;22.45;77.80;101208.59;5038644;28;46432;-78
2022/08/22 07:25:27;;;;;;;;;8.00;6.00;;;;;22.44;78.02;101217.38;5038648;28;45386;-77
2022/08/22 07:27:58;;;;;;;;;5.25;4.00;;;;;22.43;77.72;101219.09;5038432;28;45305;-77
2022/08/22 07:30:48;;;;;;;;;4.00;4.00;;;;;22.37;78.31;101211.16;5038331;28;45565;-76
2022/08/22 07:33:50;;;;;;;;;5.25;5.00;;;;;22.38;78.00;101212.94;5019778;28;47793;-76
2022/08/22 07:36:29;;;;;;;;;5.50;5.00;;;;;22.38;77.99;101215.56;5038230;28;45285;-77
2022/08/22 07:39:31;;;;;;;;;5.75;3.25;;;;;22.44;77.48;101220.00;5038129;28;45442;-78
2022/08/22 07:42:09;;;;;;;;;6.75;4.00;;;;;22.46;76.99;101213.84;5038507;28;45386;-78
2022/08/22 07:44:40;;;;;;;;;6.00;4.00;;;;;22.54;76.90;101219.16;5038420;28;45413;-78
2022/08/22 07:47:14;;;;;;;;;6.00;6.00;;;;;22.57;76.33;101214.75;5038115;28;45650;-77
2022/08/22 07:49:55;;;;;;;;;6.50;5.00;;;;;22.65;76.24;101216.50;5038141;28;45292;-77
2022/08/22 07:52:23;;;;;;;;;7.00;4.50;;;;;22.65;76.07;101219.16;5038354;28;45432;-75
2022/08/22 07:55:13;;;;;;;;;6.75;4.50;;;;;22.68;76.65;101233.22;5037818;28;46178;-77
2022/08/22 07:57:46;;;;;;;;;7.75;5.00;;;;;22.66;75.78;101219.16;5038154;28;45360;-77
2022/08/22 08:00:16;;;;;;;;;6.00;4.00;;;;;22.62;76.42;101211.25;5037687;28;45236;-77
2022/08/22 08:02:55;;;;;;;;;8.00;5.00;;;;;22.62;76.71;101204.19;5037951;28;45514;-76
2022/08/22 08:05:29;;;;;;;;;6.25;5.00;;;;;22.61;76.51;101209.47;5037499;28;45676;-77
2022/08/22 08:08:02;;;;;;;;;5.50;5.00;;;;;22.65;76.39;101216.50;5037754;28;45253;-77
2022/08/22 08:10:34;;;;;;;;;6.50;6.50;;;;;22.70;76.09;101217.41;5037308;28;45341;-78
2022/08/22 08:13:05;;;;;;;;;5.75;3.00;;;;;22.79;76.27;101217.41;5037497;28;45326;-76
2022/08/22 08:15:36;;;;;;;;;7.25;6.00;;;;;22.90;75.36;101232.38;5037430;28;45694;-76
2022/08/22 08:18:18;;;;;;;;;6.25;5.00;;;;;22.93;75.17;101233.25;5037593;28;45419;-76
2022/08/22 08:20:50;;;;;;;;;7.00;6.50;;;;;22.96;75.05;101227.09;5037915;28;45546;-79
2022/08/22 08:23:18;;;;;;;;;4.25;4.25;;;;;22.97;74.92;101224.47;5019927;28;45529;-79
2022/08/22 08:26:06;;;;;;;;;6.25;5.00;;;;;23.00;74.97;101223.56;5019876;28;45380;-77
2022/08/22 08:28:37;;;;;;;;;7.00;6.00;;;;;23.06;74.79;101230.63;5037186;28;45904;-77
2022/08/22 08:31:20;;;;;;;;;5.75;4.75;;;;;23.06;74.53;101226.19;5037643;28;45276;-77
2022/08/22 08:33:49;;;;;;;;;6.00;5.50;;;;;23.05;74.80;101221.81;5038577;28;45320;-77
2022/08/22 08:36:30;;;;;;;;;5.00;5.00;;;;;23.03;75.04;101218.31;5037266;28;45483;-77
2022/08/22 08:39:01;;;;;;;;;8.00;7.00;;;;;23.00;75.01;101213.88;5019311;28;45762;-77
2022/08/22 08:42:18;;;;;;;;;8.75;5.75;;;;;22.95;75.33;101222.69;5019340;28;45367;-77
2022/08/22 08:45:03;;;;;;;;;6.50;5.00;;;;;22.87;76.00;101215.66;5003450;28;45490;-77
2022/08/22 08:47:31;;;;;;;;;3.50;3.25;;;;;22.82;75.91;101208.59;5036957;28;46300;-78
2022/08/22 08:50:28;;;;;;;;;4.00;4.00;;;;;22.78;76.49;101202.44;5037174;28;45672;-78
2022/08/22 08:52:59;;;;;;;;;5.50;5.00;;;;;22.75;76.84;101196.28;5037240;28;45343;-77
2022/08/22 08:55:56;;;;;;;;;4.50;4.50;;;;;22.67;76.69;101188.38;5037494;28;45529;-76
2022/08/22 08:59:08;;;;;;;;;5.00;5.00;;;;;22.65;77.57;101188.38;5036988;28;45342;-79
2022/08/22 09:01:49;;;;;;;;;6.75;4.75;;;;;22.64;78.25;101191.00;5037076;28;45300;-77
2022/08/22 09:04:43;;;;;;;;;4.50;4.50;;;;;22.64;78.36;101183.97;5035568;28;45358;-77
2022/08/22 09:07:24;;;;;;;;;5.75;4.00;;;;;22.60;78.54;101187.47;5019214;28;45445;-77
2022/08/22 09:09:55;;;;;;;;;7.75;4.00;;;;;22.58;78.25;101183.94;5037054;28;46057;-78
2022/08/22 09:12:35;;;;;;;;;6.25;3.75;;;;;22.60;77.66;101183.97;5018578;28;45479;-77
2022/08/22 09:15:26;;;;;;;;;4.50;3.75;;;;;22.59;77.60;101166.38;5018848;28;45382;-77
2022/08/22 09:18:23;;;;;;;;;5.00;4.00;;;;;22.65;77.18;101179.56;5037032;28;45417;-77
2022/08/22 09:21:05;;;;;;;;;5.50;3.00;;;;;22.61;76.83;101173.41;5036820;28;45360;-77
2022/08/22 09:23:51;;;;;;;;;4.00;4.00;;;;;22.68;76.98;101180.44;5018149;28;45787;-78
2022/08/22 09:26:38;;;;;;;;;4.50;4.50;;;;;22.70;76.14;101183.97;5036605;28;45366;-75
2022/08/22 09:29:41;;;;;;;;;2.75;2.75;;;;;22.75;75.35;101185.72;5036894;28;45479;-77
2022/08/22 09:32:12;;;;;;;;;3.50;3.50;;;;;22.79;75.52;101179.56;5036141;28;46027;-76
2022/08/22 09:34:58;;;;;;;;;5.75;3.50;;;;;22.85;74.89;101174.28;5036398;28;45331;-77
2022/08/22 09:37:43;;;;;;;;;4.25;3.50;;;;;22.96;74.38;101171.63;5018475;28;45462;-76
2022/08/22 09:40:24;;;;;;;;;5.00;3.25;;;;;23.02;73.31;101167.22;5036650;28;45510;-77
2022/08/22 09:43:31;;;;;;;;;4.00;4.00;;;;;23.06;73.50;101162.81;5036184;28;45325;-78
2022/08/22 09:46:19;;;;;;;;;3.00;3.00;;;;;23.09;73.95;101152.25;5016688;28;45469;-75
2022/08/22 09:49:05;;;;;;;;;5.00;3.00;;;;;23.15;74.10;101157.53;5036166;28;45485;-76
2022/08/22 09:52:04;;;;;;;;;4.75;4.25;;;;;23.16;73.77;101154.00;5039824;28;45301;-76
2022/08/22 09:54:53;;;;;;;;;4.00;3.25;;;;;23.19;73.48;101155.81;5018224;28;48099;-77
2022/08/22 09:57:36;;;;;;;;;5.25;4.00;;;;;23.19;73.27;101146.09;5035978;28;45726;-76
2022/08/22 10:00:05;;;;;;;;;3.00;3.00;;;;;23.24;73.35;101155.78;5036149;28;45264;-78
2022/08/22 10:02:37;;;;;;;;;2.75;2.50;;;;;23.22;73.13;101150.50;5036324;28;45481;-77
2022/08/22 10:05:02;;;;;;;;;6.00;3.00;;;;;23.23;72.82;101159.31;5036057;28;46036;-78
2022/08/22 10:07:28;;;;;;;;;3.50;2.75;;;;;23.23;72.54;101162.81;5035898;28;45500;-77
2022/08/22 10:10:17;;;;;;;;;3.00;3.00;;;;;23.24;72.13;101167.22;5036126;28;45382;-77
2022/08/22 10:12:49;;;;;;;;;5.00;3.00;;;;;23.25;71.31;101154.91;5036206;28;45564;-76
2022/08/22 10:15:39;;;;;;;;;2.00;2.00;;;;;23.27;71.21;101161.06;5036428;28;45412;-76
2022/08/22 10:18:33;;;;;;;;;2.00;2.00;;;;;23.29;71.10;101165.47;5036182;28;45659;-78
2022/08/22 10:21:36;;;;;;;;;2.00;2.00;;;;;23.31;70.88;101158.41;5036040;28;45354;-77
2022/08/22 10:24:36;;;;;;;;;4.25;2.75;;;;;23.34;70.74;101149.59;5035987;28;45506;-77
2022/08/22 10:27:12;;;;;;;;;2.75;2.75;;;;;23.36;71.28;101152.22;5020319;28;45270;-76
2022/08/22 10:29:52;;;;;;;;;5.00;3.00;;;;;23.41;70.70;101147.81;5035551;28;45595;-76
2022/08/22 10:32:33;;;;;;;;;3.00;3.00;;;;;23.44;70.71;101143.41;5036119;28;45492;-76
2022/08/22 10:35:34;;;;;;;;;3.75;3.75;;;;;23.49;70.99;101148.66;5042663;28;45420;-76
2022/08/22 10:38:09;;;;;;;;;2.50;2.50;;;;;23.56;70.38;101147.75;4992816;28;48031;-75
2022/08/22 10:40:50;;;;;;;;;3.75;3.75;;;;;23.61;69.27;101148.63;5039104;28;45769;-76
2022/08/22 10:43:57;;;;;;;;;4.50;3.00;;;;;23.61;69.03;101151.28;5039474;28;45424;-76
2022/08/22 10:46:34;;;;;;;;;3.50;3.50;;;;;23.65;68.77;101146.84;5011726;28;45474;-77
2022/08/22 10:49:04;;;;;;;;;4.25;1.75;;;;;23.66;69.14;101145.97;5038657;28;46149;-77
2022/08/22 10:51:54;;;;;;;;;4.00;3.00;;;;;23.75;69.01;101145.06;5038929;28;45655;-75
2022/08/22 10:54:41;;;;;;;;;3.00;2.00;;;;;23.86;68.72;101147.63;5039832;28;45307;-77
2022/08/22 10:57:14;;;;;;;;;3.00;3.00;;;;;23.95;68.49;101139.69;5039790;28;45300;-76
2022/08/22 11:00:05;;;;;;;;;4.00;2.00;;;;;24.03;68.47;101137.00;5039043;28;46177;-77
2022/08/22 11:02:35;;;;;;;;;2.75;2.75;;;;;24.14;69.19;101135.16;5038949;28;45311;-78
2022/08/22 11:05:01;;;;;;;;;5.50;3.25;;;;;24.24;68.32;101136.00;5038922;28;45369;-78
2022/08/22 11:07:54;;;;;;;;;2.75;2.75;;;;;24.32;68.11;101134.16;5039506;28;45338;-76
2022/08/22 11:11:03;;;;;;;;;2.75;2.75;;;;;24.42;68.17;101145.53;5038843;28;46112;-77
2022/08/22 11:14:23;;;;;;;;;3.00;3.00;;;;;24.53;68.10;101148.13;5038555;28;45789;-77
2022/08/22 11:17:20;;;;;;;;;3.75;3.00;;;;;24.63;67.58;101140.97;4957576;28;45370;-77
2022/08/22 11:20:00;;;;;;;;;5.00;3.00;;;;;24.72;66.95;101139.16;5002512;28;45417;-77
2022/08/22 11:22:32;;;;;;;;;3.00;2.00;;;;;24.83;66.67;101133.78;5038275;28;45388;-76
2022/08/22 11:25:25;;;;;;;;;3.00;2.50;;;;;24.96;65.70;101134.53;5038346;28;45328;-78
2022/08/22 11:28:18;;;;;;;;;2.00;2.00;;;;;25.08;65.26;101124.69;5020753;28;45274;-77
2022/08/22 11:31:02;;;;;;;;;3.75;2.75;;;;;25.16;65.56;101131.66;5038606;28;45404;-77
2022/08/22 11:33:50;;;;;;;;;3.00;1.25;;;;;25.24;64.70;101138.66;5038248;28;45438;-77
2022/08/22 11:36:45;;;;;;;;;2.50;2.00;;;;;25.28;64.68;101135.97;5039965;28;45341;-77
2022/08/22 11:39:56;;;;;;;;;2.00;2.00;;;;;25.41;64.42;101138.50;5038303;28;45172;-76
2022/08/22 11:42:38;;;;;;;;;1.25;1.00;;;;;25.54;63.92;101137.44;5034464;28;45402;-76
2022/08/22 11:45:07;;;;;;;;;2.00;2.00;;;;;25.65;63.56;101135.53;5037957;28;45451;-77
2022/08/22 11:47:45;;;;;;;;;2.25;2.00;;;;;25.80;63.00;101122.97;5037510;28;45776;-77
2022/08/22 11:50:38;;;;;;;;;2.00;2.00;;;;;25.96;61.90;101124.53;5038018;28;45361;-77
2022/08/22 11:53:21;;;;;;;;;2.50;2.00;;;;;26.02;62.23;101120.00;5038349;28;45328;-76
2022/08/22 11:56:16;;;;;;;;;1.75;1.75;;;;;26.15;61.46;101121.63;5003381;28;47514;-77
2022/08/22 11:59:13;;;;;;;;;2.25;2.25;;;;;26.26;61.44;101118.78;5040543;28;45344;-77
2022/08/22 12:01:54;;;;;;;;;2.00;2.00;;;;;26.21;61.12;101118.88;5041187;28;45340;-77
2022/08/22 12:04:42;;;;;;;;;4.00;3.00;;;;;26.25;61.57;101115.28;5038604;28;45343;-76
2022/08/22 12:07:20;;;;;;;;;2.00;2.00;;;;;26.37;61.38;101121.28;5038154;28;45483;-77
2022/08/22 12:10:08;;;;;;;;;1.50;1.50;;;;;26.44;61.10;101117.63;5038043;28;45686;-78
2022/08/22 12:12:51;;;;;;;;;2.00;1.75;;;;;26.56;60.89;101108.59;5038321;28;45285;-77
2022/08/22 12:15:45;;;;;;;;;5.75;2.50;;;;;26.76;60.76;101102.03;5038235;28;45422;-76
2022/08/22 12:18:29;;;;;;;;;1.50;1.50;;;;;26.94;60.28;101098.22;5037577;28;45765;-77
2022/08/22 12:21:56;;;;;;;;;3.50;2.25;;;;;27.02;59.99;101101.59;5037813;28;45243;-77
2022/08/22 12:24:36;;;;;;;;;1.50;1.25;;;;;27.11;58.84;101100.50;4956954;28;45331;-76
2022/08/22 12:27:44;;;;;;;;;0.00;0.00;;;;;27.11;59.02;101106.72;5037871;28;45429;-77
2022/08/22 12:30:20;;;;;;;;;2.75;0.25;;;;;27.18;58.17;101092.38;5037284;28;46288;-76
2022/08/22 12:33:04;;;;;;;;;1.75;1.75;;;;;27.30;57.50;101095.72;5037341;28;45246;-76
2022/08/22 12:35:45;;;;;;;;;1.50;1.00;;;;;27.38;57.51;101093.75;5037313;28;45367;-77
2022/08/22 12:38:28;;;;;;;;;2.50;1.00;;;;;27.38;57.24;101090.25;5019468;28;45550;-77
2022/08/22 12:41:19;;;;;;;;;1.00;1.00;;;;;27.27;57.33;101093.09;5037415;28;46383;-77
2022/08/22 12:44:03;;;;;;;;;4.00;1.75;;;;;27.12;57.59;101088.97;5036855;28;45876;-77
2022/08/22 12:47:06;;;;;;;;;1.00;1.00;;;;;27.00;58.69;101084.78;5037347;28;45385;-77
2022/08/22 12:49:59;;;;;;;;;0.75;0.50;;;;;26.98;59.53;101076.88;5037319;28;45386;-77
2022/08/22 12:52:31;;;;;;;;;2.00;2.00;;;;;26.99;59.52;101083.94;5041925;28;45460;-75
2022/08/22 12:55:36;;;;;;;;;2.25;0.50;;;;;27.03;59.56;101072.31;5039857;28;45217;-77
2022/08/22 12:58:39;;;;;;;;;1.75;0.75;;;;;27.10;59.12;101070.41;5036049;28;45194;-77
2022/08/22 13:01:07;;;;;;;;;1.50;1.50;;;;;27.06;59.81;101062.53;5037199;28;45304;-77
2022/08/22 13:03:45;;;;;;;;;3.75;2.00;;;;;27.00;59.41;101071.50;5036615;28;45288;-76
2022/08/22 13:06:47;;;;;;;;;3.75;1.50;;;;;26.94;60.22;101077.81;5036501;28;45341;-76
2022/08/22 13:09:18;;;;;;;;;1.00;1.00;;;;;26.88;60.98;101077.94;5036766;28;45394;-76
2022/08/22 13:11:47;;;;;;;;;1.75;1.75;;;;;26.88;61.42;101077.94;5036913;28;45477;-76
2022/08/22 13:14:20;;;;;;;;;4.75;1.25;;;;;26.92;61.16;101074.31;5036570;28;46031;-77
2022/08/22 13:16:59;;;;;;;;;3.00;1.75;;;;;26.95;61.07;101074.25;5036497;28;45249;-77
2022/08/22 13:19:34;;;;;;;;;1.00;0.25;;;;;26.95;61.81;101079.56;5036951;28;45816;-77
2022/08/22 13:22:06;;;;;;;;;1.50;1.50;;;;;26.95;62.22;101073.38;5037320;28;45351;-77
2022/08/22 13:24:44;;;;;;;;;1.00;1.00;;;;;26.97;61.45;101067.13;5036502;28;45229;-77
2022/08/22 13:27:22;;;;;;;;;1.50;1.00;;;;;26.99;62.34;101067.09;5036360;28;45377;-77
2022/08/22 13:29:54;;;;;;;;;5.50;2.75;;;;;27.00;61.80;101061.75;5036611;28;45353;-77
2022/08/22 13:32:28;;;;;;;;;2.00;2.00;;;;;27.09;61.98;101059.81;5037049;28;45339;-78
2022/08/22 13:34:56;;;;;;;;;4.50;4.00;;;;;27.21;61.60;101062.25;5019512;28;46579;-78
2022/08/22 13:37:30;;;;;;;;;1.00;1.00;;;;;27.34;61.57;101060.19;5018489;28;45667;-78
2022/08/22 13:40:03;;;;;;;;;1.50;0.75;;;;;27.48;60.63;101054.59;5036414;28;45414;-78
2022/08/22 13:42:32;;;;;;;;;1.25;1.00;;;;;27.57;60.31;101058.84;5036941;28;45349;-78
2022/08/22 13:45:09;;;;;;;;;2.00;1.00;;;;;27.69;60.00;101058.56;5036347;28;46257;-77
2022/08/22 13:47:46;;;;;;;;;1.00;1.00;;;;;27.77;59.00;101061.94;5018034;28;45431;-76
2022/08/22 13:50:17;;;;;;;;;1.00;0.25;;;;;27.72;59.38;101058.47;5036169;28;45331;-76
2022/08/22 13:52:46;;;;;;;;;1.00;1.00;;;;;27.71;59.74;101062.06;5036260;28;45417;-76
2022/08/22 13:55:21;;;;;;;;;0.50;0.25;;;;;27.71;59.62;101061.19;5035749;28;46261;-76
2022/08/22 13:57:52;;;;;;;;;1.00;1.00;;;;;27.68;59.58;101069.22;5017871;28;45343;-77
2022/08/22 14:00:18;;;;;;;;;0.75;0.75;;;;;27.61;59.77;101065.81;5036202;28;45437;-75
2022/08/22 14:03:24;;;;;;;;;1.00;1.00;;;;;27.48;59.95;101062.56;5036213;28;45574;-76
2022/08/22 14:05:57;;;;;;;;;1.00;1.00;;;;;27.41;60.83;101064.47;5018555;28;45572;-75
2022/08/22 14:08:35;;;;;;;;;1.50;1.50;;;;;27.39;61.17;101055.63;5017877;28;45858;-76
2022/08/22 14:11:26;;;;;;;;;0.00;0.00;;;;;27.43;60.27;101056.47;5039468;28;45237;-76
2022/08/22 14:13:59;;;;;;;;;0.50;0.50;;;;;27.49;60.44;101056.34;5039449;28;45406;-76
2022/08/22 14:16:58;;;;;;;;;1.00;1.00;;;;;27.71;60.33;101053.22;5039388;28;46194;-76
2022/08/22 14:19:29;;;;;;;;;1.25;1.25;;;;;27.89;59.70;101055.44;4996476;28;45910;-76
2022/08/22 14:22:26;;;;;;;;;0.50;0.50;;;;;28.08;57.16;101047.03;5040460;28;45394;-76
2022/08/22 14:24:57;;;;;;;;;1.25;1.25;;;;;28.18;57.76;101045.03;5006035;28;45349;-76
2022/08/22 14:27:33;;;;;;;;;1.75;1.75;;;;;28.11;57.51;101045.19;5039515;28;45359;-77
2022/08/22 14:30:11;;;;;;;;;0.75;0.75;;;;;28.02;57.58;101053.38;5041056;28;45341;-75
2022/08/22 14:32:49;;;;;;;;;0.25;0.25;;;;;27.88;57.82;101044.84;5045422;28;45293;-75
2022/08/22 14:35:22;;;;;;;;;2.00;0.00;;;;;27.81;58.20;101042.31;5042217;28;45207;-76
2022/08/22 14:37:52;;;;;;;;;2.00;0.00;;;;;27.77;57.63;101045.06;5039991;28;45406;-76
2022/08/22 14:40:32;;;;;;;;;2.25;2.25;;;;;27.74;58.33;101035.38;5039515;28;45237;-76
2022/08/22 14:43:13;;;;;;;;;1.00;1.00;;;;;27.73;58.76;101038.94;5043013;28;45274;-76
2022/08/22 14:45:45;;;;;;;;;1.00;1.00;;;;;27.69;59.05;101037.28;5041879;28;45334;-78
2022/08/22 14:48:25;;;;;;;;;1.50;0.75;;;;;27.60;59.34;101040.13;5041585;28;45842;-77
2022/08/22 14:50:58;;;;;;;;;0.00;0.00;;;;;27.48;59.74;101047.47;5040649;28;45888;-77
2022/08/22 14:53:27;;;;;;;;;0.00;0.00;;;;;27.38;59.83;101043.25;5040292;28;45417;-77
2022/08/22 14:55:58;;;;;;;;;0.00;0.00;;;;;27.28;60.23;101039.94;5041540;28;45351;-78
2022/08/22 14:58:27;;;;;;;;;0.75;0.75;;;;;27.24;60.75;101035.56;5043103;28;45243;-75
2022/08/22 15:00:55;;;;;;;;;0.75;0.75;;;;;27.23;60.69;101033.81;5022363;28;45689;-76
2022/08/22 15:03:23;;;;;;;;;0.25;0.25;;;;;27.21;60.78;101026.78;5039890;28;45463;-77
2022/08/22 15:06:00;;;;;;;;;1.00;1.00;;;;;27.29;61.12;101033.69;5039416;28;45235;-77
2022/08/22 15:08:47;;;;;;;;;0.00;0.00;;;;;27.46;61.22;101032.47;5041979;28;45415;-78
2022/08/22 15:11:21;;;;;;;;;0.00;0.00;;;;;27.67;60.67;101019.59;5039048;28;45316;-78
2022/08/22 15:13:56;;;;;;;;;1.00;1.00;;;;;27.80;59.96;101024.63;5039418;28;45549;-76
2022/08/22 15:16:59;;;;;;;;;2.00;0.00;;;;;27.92;59.14;101027.88;5039896;28;45367;-77
2022/08/22 15:19:37;;;;;;;;;0.00;0.00;;;;;28.03;58.93;101022.28;5014152;28;46316;-76
2022/08/22 15:22:25;;;;;;;;;0.00;0.00;;;;;28.07;58.40;101027.50;5039668;28;45736;-76
2022/08/22 15:24:50;;;;;;;;;0.00;0.00;;;;;28.07;58.44;101021.31;5043632;28;45204;-76
2022/08/22 15:27:19;;;;;;;;;0.00;0.00;;;;;28.09;59.28;101020.38;5040565;28;45174;-78
2022/08/22 15:29:58;;;;;;;;;0.25;0.25;;;;;28.07;58.83;101022.19;5039605;28;46202;-77
2022/08/22 15:32:37;;;;;;;;;1.00;1.00;;;;;28.10;59.12;101021.25;5021547;28;45395;-77
2022/08/22 15:35:25;;;;;;;;;0.25;0.25;;;;;28.21;58.33;101026.31;5038735;28;45241;-76
2022/08/22 15:38:04;;;;;;;;;0.75;0.00;;;;;28.37;58.25;101022.31;5039383;28;45399;-76
2022/08/22 15:40:36;;;;;;;;;1.00;0.00;;;;;28.60;58.09;101019.97;5038337;28;46281;-77
2022/08/22 15:43:26;;;;;;;;;0.25;0.25;;;;;29.09;57.13;101009.75;5038372;28;45638;-77
2022/08/22 15:46:10;;;;;;;;;0.00;0.00;;;;;29.34;55.79;101013.44;5038716;28;45317;-76
2022/08/22 15:48:38;;;;;;;;;1.00;0.00;;;;;29.34;55.04;101010.78;5044580;28;45522;-76
2022/08/22 15:51:12;;;;;;;;;0.00;0.00;;;;;29.24;54.21;101011.94;5040935;28;45423;-76
2022/08/22 15:53:43;;;;;;;;;0.00;0.00;;;;;28.93;55.71;101012.84;5020701;28;45731;-76
2022/08/22 15:56:22;;;;;;;;;0.00;0.00;;;;;28.69;56.77;101011.72;5038574;28;45502;-77
2022/08/22 15:59:15;;;;;;;;;0.00;0.00;;;;;28.51;57.82;101013.09;5038135;28;45564;-77
2022/08/22 16:01:50;;;;;;;;;0.00;0.00;;;;;28.38;58.46;101009.91;5037590;28;46032;-77
2022/08/22 16:04:34;;;;;;;;;0.50;0.00;;;;;28.26;59.72;101011.09;5037447;28;45664;-77
2022/08/22 16:07:01;;;;;;;;;0.00;0.00;;;;;28.16;60.43;101014.91;5037794;28;45221;-76
2022/08/22 16:09:39;;;;;;;;;1.00;0.00;;;;;28.06;60.98;101008.91;5037837;28;45434;-78
2022/08/22 16:12:10;;;;;;;;;0.00;0.00;;;;;28.01;61.10;101019.69;5037423;28;46240;-77
2022/08/22 16:14:36;;;;;;;;;1.00;0.00;;;;;27.98;61.60;101018.84;5037756;28;45713;-77
2022/08/22 16:17:06;;;;;;;;;0.00;0.00;;;;;27.97;61.34;101015.34;5037424;28;45347;-76
2022/08/22 16:19:34;;;;;;;;;3.50;2.00;;;;;27.92;62.06;101011.91;5037748;28;45446;-78
2022/08/22 16:21:59;;;;;;;;;31.50;29.00;;;;;27.88;62.01;101015.56;5037126;28;46139;-78
2022/08/22 16:24:25;;;;;;;;;0.00;0.00;;;;;27.78;61.34;101013.13;5037359;28;45274;-77
2022/08/22 16:26:52;;;;;;;;;0.00;0.00;;;;;27.68;61.35;101011.59;5041228;28;45372;-75
2022/08/22 16:29:33;;;;;;;;;0.00;0.00;;;;;27.58;60.74;101018.03;5044331;28;45500;-77
2022/08/22 16:32:04;;;;;;;;;0.00;0.00;;;;;27.46;61.11;101012.09;5040678;28;45969;-77
2022/08/22 16:34:36;;;;;;;;;0.00;0.00;;;;;27.39;61.25;101010.44;5020514;28;45477;-77
2022/08/22 16:37:07;;;;;;;;;0.00;0.00;;;;;27.29;62.01;101014.19;5019193;28;45249;-77
2022/08/22 16:39:42;;;;;;;;;0.50;0.00;;;;;27.22;62.01;101007.28;5037097;28;45324;-76
2022/08/22 16:42:22;;;;;;;;;0.00;0.00;;;;;27.16;62.38;101008.28;5037413;28;45407;-78
2022/08/22 16:44:49;;;;;;;;;0.00;0.00;;;;;27.14;62.75;101015.41;5037159;28;45286;-77
2022/08/22 16:47:14;;;;;;;;;0.00;0.00;;;;;27.08;62.93;101015.56;5037041;28;45314;-77
2022/08/22 16:50:15;;;;;;;;;0.00;0.00;;;;;27.02;62.43;101003.28;5037291;28;45408;-80
2022/08/22 16:52:55;;;;;;;;;0.00;0.00;;;;;26.98;63.23;101002.47;5023437;28;45454;-78
2022/08/22 16:55:30;;;;;;;;;0.50;0.00;;;;;26.96;63.72;101001.59;5056776;28;45681;-78
2022/08/22 16:58:01;;;;;;;;;0.50;0.25;;;;;26.94;63.75;101008.72;5058602;28;45476;-77
2022/08/22 17:00:52;;;;;;;;;0.00;0.00;;;;;26.92;63.81;100999.06;5057642;28;45385;-77
2022/08/22 17:03:23;;;;;;;;;0.00;0.00;;;;;26.99;64.16;100992.69;5059006;28;45382;-77
2022/08/22 17:06:30;;;;;;;;;0.00;0.00;;;;;27.14;64.02;100995.03;5059557;28;45359;-78
2022/08/22 17:09:02;;;;;;;;;0.00;0.00;;;;;27.26;64.16;100996.53;5056189;28;45434;-78
2022/08/22 17:11:52;;;;;;;;;0.00;0.00;;;;;27.27;64.02;100987.66;5057080;28;45165;-78
2022/08/22 17:14:46;;;;;;;;;0.00;0.00;;;;;27.37;63.61;100991.00;5056527;28;45319;-78
2022/08/22 17:17:34;;;;;;;;;0.00;0.00;;;;;27.57;62.99;100992.34;5036784;28;45380;-77
2022/08/22 17:20:24;;;;;;;;;0.00;0.00;;;;;27.84;61.86;100996.16;5059888;28;45465;-78
2022/08/22 17:22:56;;;;;;;;;0.00;0.00;;;;;28.14;60.26;100992.75;5058968;28;45589;-77
2022/08/22 17:25:33;;;;;;;;;0.00;0.00;;;;;28.40;59.10;101000.09;5054597;28;47706;-78
2022/08/22 17:28:12;;;;;;;;;0.00;0.00;;;;;28.58;57.48;100996.91;5080500;27;45572;-78
2022/08/22 17:31:00;;;;;;;;;0.00;0.00;;;;;28.71;57.74;100999.25;5040867;28;45328;-78
2022/08/22 17:33:42;;;;;;;;;0.00;0.00;;;;;28.81;56.54;101002.53;5060365;28;45225;-79
2022/08/22 17:36:47;;;;;;;;;0.00;0.00;;;;;28.81;55.75;101007.88;5057178;28;45334;-76
2022/08/22 17:39:23;;;;;;;;;0.00;0.00;;;;;28.79;55.22;101004.38;5054655;28;45708;-82
2022/08/22 17:42:02;;;;;;;;;0.00;0.00;;;;;28.70;55.88;101003.69;5059652;28;45465;-80
2022/08/22 17:44:44;;;;;;;;;0.00;0.00;;;;;28.50;55.77;101004.25;5058374;28;45170;-80
2022/08/22 17:47:22;;;;;;;;;0.00;0.00;;;;;28.31;56.70;100998.53;5063741;28;46313;-78
2022/08/22 17:50:04;;;;;;;;;0.00;0.00;;;;;28.15;57.81;100991.84;5059821;28;45339;-81
2022/08/22 17:53:00;;;;;;;;;0.00;0.00;;;;;28.02;57.99;100997.47;5059780;28;45395;-80
2022/08/22 17:55:33;;;;;;;;;0.00;0.00;;;;;27.90;58.19;101001.31;5048799;28;45336;-79
2022/08/22 17:58:13;;;;;;;;;0.00;0.00;;;;;27.83;58.61;101004.13;5059200;28;46440;-82
2022/08/22 18:01:05;;;;;;;;;0.00;0.00;;;;;27.71;58.90;101008.84;5057859;28;45602;-82
2022/08/22 18:03:40;;;;;;;;;0.00;0.00;;;;;27.58;59.78;100994.09;5056318;28;45221;-81
2022/08/22 18:06:29;;;;;;;;;0.00;0.00;;;;;27.55;60.18;101002.16;5049516;28;45441;-82
2022/08/22 18:09:06;;;;;;;;;0.75;0.00;;;;;27.49;60.28;100997.84;5050604;28;45650;-80
2022/08/22 18:11:31;;;;;;;;;0.00;0.00;;;;;27.39;60.91;100999.78;5055666;28;45407;-89
2022/08/22 18:14:07;;;;;;;;;0.25;0.00;;;;;27.27;61.46;101010.69;5057841;28;45406;-85